createdAt,value
2023-10-02T00:02:40.991Z,7.98
2023-10-02T00:05:41.903Z,7.92
2023-10-02T00:08:33.185Z,7.95
2023-10-02T00:11:37.799Z,8.07
2023-10-02T00:14:24.305Z,8.03
2023-10-02T00:17:19.554Z,7.99
2023-10-02T00:20:15.445Z,7.97
2023-10-02T00:23:02.776Z,7.94
2023-10-02T00:25:53.546Z,7.97
2023-10-02T00:28:39.203Z,7.94
2023-10-02T00:31:37.466Z,7.95
2023-10-02T00:34:33.165Z,7.97
2023-10-02T00:37:18.777Z,8.04
2023-10-02T00:40:08.127Z,8.10
2023-10-02T00:43:22.184Z,8.17
2023-10-02T00:46:24.693Z,8.15
2023-10-02T00:49:26.707Z,8.15
2023-10-02T00:52:12.228Z,8.14
2023-10-02T00:54:57.875Z,8.09
2023-10-02T00:57:46.861Z,8.12
2023-10-02T01:00:43.767Z,8.11
2023-10-02T01:03:49.225Z,8.06
2023-10-02T01:06:55.058Z,8.08
2023-10-02T01:09:42.841Z,8.08
2023-10-02T01:12:39.815Z,8.06
2023-10-02T01:15:39.010Z,8.06
2023-10-02T01:18:34.661Z,8.05
2023-10-02T01:21:25.953Z,8.05
2023-10-02T01:24:18.379Z,8.14
2023-10-02T01:27:04.954Z,8.23
2023-10-02T01:30:10.803Z,8.25
2023-10-02T01:33:13.513Z,8.31
2023-10-02T01:36:01.541Z,8.37
2023-10-02T01:38:48.169Z,8.37
2023-10-02T01:41:33.698Z,8.35
2023-10-02T01:44:23.951Z,8.45
2023-10-02T01:47:10.564Z,8.65
2023-10-02T01:50:01.721Z,8.79
2023-10-02T01:52:52.315Z,8.80
2023-10-02T01:55:38.230Z,8.82
2023-10-02T01:58:24.499Z,8.84
2023-10-02T02:01:10.996Z,8.94
2023-10-02T02:03:56.890Z,8.97
2023-10-02T02:06:52.842Z,8.95
2023-10-02T02:09:44.307Z,8.89
2023-10-02T02:12:46.069Z,8.85
2023-10-02T02:15:33.442Z,8.79
2023-10-02T02:18:22.200Z,8.74
2023-10-02T02:21:11.278Z,8.71
2023-10-02T02:24:08.990Z,8.65
2023-10-02T02:26:59.130Z,8.64
2023-10-02T02:29:44.805Z,8.61
2023-10-02T02:32:54.014Z,8.61
2023-10-02T02:35:45.500Z,8.61
2023-10-02T02:38:31.059Z,8.58
2023-10-02T02:41:19.914Z,8.59
2023-10-02T02:44:07.775Z,8.52
2023-10-02T02:46:55.327Z,8.50
2023-10-02T02:50:00.076Z,8.43
2023-10-02T02:53:05.477Z,8.35
2023-10-02T02:56:24.459Z,8.28
2023-10-02T02:59:10.463Z,8.27
2023-10-02T03:02:10.314Z,8.26
2023-10-02T03:04:58.126Z,8.20
2023-10-02T03:07:46.024Z,8.15
2023-10-02T03:10:38.158Z,8.09
2023-10-02T03:13:23.728Z,8.10
2023-10-02T03:16:19.204Z,8.05
2023-10-02T03:19:04.885Z,8.00
2023-10-02T03:21:50.215Z,7.94
2023-10-02T03:24:35.831Z,7.87
2023-10-02T03:27:22.862Z,7.86
2023-10-02T03:30:10.941Z,7.82
2023-10-02T03:32:56.913Z,7.80
2023-10-02T03:35:42.185Z,7.79
2023-10-02T03:38:30.475Z,7.80
2023-10-02T03:41:16.501Z,7.78
2023-10-02T03:44:03.241Z,7.77
2023-10-02T03:46:49.966Z,7.75
2023-10-02T03:49:35.822Z,7.75
2023-10-02T03:52:21.145Z,7.76
2023-10-02T03:55:17.183Z,7.73
2023-10-02T03:58:03.928Z,7.72
2023-10-02T04:00:52.395Z,7.70
2023-10-02T04:03:54.848Z,7.67
2023-10-02T04:06:43.722Z,7.62
2023-10-02T04:09:29.173Z,7.61
2023-10-02T04:12:14.542Z,7.61
2023-10-02T04:15:02.569Z,7.65
2023-10-02T04:17:51.119Z,7.63
2023-10-02T04:20:37.430Z,7.60
2023-10-02T04:23:24.528Z,7.55
2023-10-02T04:26:21.836Z,7.48
2023-10-02T04:29:27.809Z,7.42
2023-10-02T04:32:16.390Z,7.38
2023-10-02T04:35:04.310Z,7.35
2023-10-02T04:37:50.036Z,7.32
2023-10-02T04:40:50.894Z,7.27
2023-10-02T04:43:37.125Z,7.24
2023-10-02T04:46:26.108Z,7.25
2023-10-02T04:49:12.599Z,7.23
2023-10-02T04:51:59.973Z,7.17
2023-10-02T04:55:05.613Z,7.13
2023-10-02T04:57:55.953Z,7.16
2023-10-02T05:01:04.779Z,7.19
2023-10-02T05:03:51.315Z,7.25
2023-10-02T05:06:51.033Z,7.44
2023-10-02T05:09:40.072Z,7.47
2023-10-02T05:12:25.690Z,7.45
2023-10-02T05:15:22.064Z,7.47
2023-10-02T05:18:11.072Z,7.47
2023-10-02T05:20:56.629Z,7.47
2023-10-02T05:23:45.145Z,7.50
2023-10-02T05:26:45.920Z,7.50
2023-10-02T05:29:42.760Z,7.45
2023-10-02T05:32:33.185Z,7.41
2023-10-02T05:35:20.107Z,7.44
2023-10-02T05:38:09.607Z,7.42
2023-10-02T05:41:00.003Z,7.39
2023-10-02T05:43:57.197Z,7.40
2023-10-02T05:47:06.466Z,7.36
2023-10-02T05:49:55.065Z,7.38
2023-10-02T05:52:50.151Z,7.39
2023-10-02T05:55:53.932Z,7.39
2023-10-02T05:58:43.124Z,7.45
2023-10-02T06:01:35.575Z,7.50
2023-10-02T06:04:24.587Z,7.56
2023-10-02T06:07:13.224Z,7.54
2023-10-02T06:10:02.234Z,7.49
2023-10-02T06:12:49.205Z,7.51
2023-10-02T06:15:50.682Z,7.50
2023-10-02T06:18:39.610Z,7.47
2023-10-02T06:21:26.514Z,7.46
2023-10-02T06:24:11.890Z,7.45
2023-10-02T06:26:59.236Z,7.42
2023-10-02T06:29:46.021Z,7.43
2023-10-02T06:32:33.388Z,7.42
2023-10-02T06:35:19.162Z,7.43
2023-10-02T06:38:18.948Z,7.45
2023-10-02T06:41:18.758Z,7.42
2023-10-02T06:44:16.449Z,7.42
2023-10-02T06:47:05.605Z,7.44
2023-10-02T06:50:04.111Z,7.52
2023-10-02T06:52:53.463Z,7.58
2023-10-02T06:55:40.894Z,7.64
2023-10-02T06:58:27.451Z,7.67
2023-10-02T07:01:13.770Z,7.73
2023-10-02T07:04:10.426Z,7.80
2023-10-02T07:07:04.286Z,7.87
2023-10-02T07:09:50.043Z,7.93
2023-10-02T07:12:41.993Z,7.99
2023-10-02T07:15:27.922Z,8.03
2023-10-02T07:18:13.680Z,8.06
2023-10-02T07:20:59.075Z,8.14
2023-10-02T07:23:45.986Z,8.23
2023-10-02T07:26:51.036Z,8.31
2023-10-02T07:29:40.300Z,8.39
2023-10-02T07:32:34.025Z,8.50
2023-10-02T07:35:23.282Z,8.62
2023-10-02T07:38:10.467Z,8.70
2023-10-02T07:40:59.317Z,8.87
2023-10-02T07:43:45.520Z,9.01
2023-10-02T07:46:32.356Z,9.15
2023-10-02T07:49:18.393Z,9.26
2023-10-02T07:52:07.948Z,9.36
2023-10-02T07:54:59.824Z,9.47
2023-10-02T07:57:45.571Z,9.61
2023-10-02T08:00:40.733Z,9.71
2023-10-02T08:03:44.553Z,9.86
2023-10-02T08:06:33.179Z,10.00
2023-10-02T08:09:44.984Z,10.07
2023-10-02T08:12:35.530Z,10.17
2023-10-02T08:15:34.456Z,10.26
2023-10-02T08:18:20.733Z,10.32
2023-10-02T08:21:06.617Z,10.37
2023-10-02T08:23:54.221Z,10.41
2023-10-02T08:26:42.141Z,10.46
2023-10-02T08:29:28.726Z,10.56
2023-10-02T08:32:27.815Z,10.65
2023-10-02T08:35:15.735Z,10.79
2023-10-02T08:38:01.817Z,10.92
2023-10-02T08:40:47.468Z,11.04
2023-10-02T08:43:45.578Z,11.17
2023-10-02T08:46:32.954Z,11.28
2023-10-02T08:49:19.514Z,11.39
2023-10-02T08:52:09.872Z,11.49
2023-10-02T08:54:55.493Z,11.57
2023-10-02T08:58:02.362Z,11.60
2023-10-02T09:01:10.469Z,11.64
2023-10-02T09:04:25.492Z,11.66
2023-10-02T09:07:24.257Z,11.71
2023-10-02T09:10:29.607Z,11.73
2023-10-02T09:13:25.789Z,11.77
2023-10-02T09:16:15.427Z,11.83
2023-10-02T09:19:29.945Z,11.90
2023-10-02T09:22:19.422Z,12.01
2023-10-02T09:25:11.348Z,12.09
2023-10-02T09:28:05.334Z,12.21
2023-10-02T09:30:51.592Z,12.31
2023-10-02T09:33:50.985Z,12.43
2023-10-02T09:37:10.721Z,12.57
2023-10-02T09:39:58.843Z,12.68
2023-10-02T09:42:49.720Z,12.75
2023-10-02T09:45:38.950Z,12.83
2023-10-02T09:48:47.646Z,12.89
2023-10-02T09:52:14.053Z,12.94
2023-10-02T09:55:07.594Z,12.99
2023-10-02T09:57:55.638Z,12.99
2023-10-02T10:01:29.209Z,12.98
2023-10-02T10:04:33.395Z,12.95
2023-10-02T10:07:38.892Z,12.97
2023-10-02T10:10:50.306Z,13.02
2023-10-02T10:13:47.846Z,13.03
2023-10-02T10:16:34.694Z,13.04
2023-10-02T10:19:20.213Z,13.04
2023-10-02T10:22:27.436Z,13.08
2023-10-02T10:25:22.529Z,13.09
2023-10-02T10:28:10.570Z,13.11
2023-10-02T10:31:02.963Z,13.10
2023-10-02T10:33:48.988Z,13.13
2023-10-02T10:36:38.880Z,13.13
2023-10-02T10:39:52.897Z,13.16
2023-10-02T10:42:58.149Z,13.24
2023-10-02T10:45:45.693Z,13.29
2023-10-02T10:48:31.023Z,13.31
2023-10-02T10:51:23.611Z,13.33
2023-10-02T10:54:14.373Z,13.35
2023-10-02T10:57:24.534Z,13.38
2023-10-02T11:00:27.156Z,13.39
2023-10-02T11:03:16.399Z,13.39
2023-10-02T11:06:04.485Z,13.41
2023-10-02T11:09:13.232Z,13.41
2023-10-02T11:12:00.118Z,13.40
2023-10-02T11:14:45.823Z,13.36
2023-10-02T11:17:34.327Z,13.35
2023-10-02T11:20:32.779Z,13.34
2023-10-02T11:23:41.372Z,13.35
2023-10-02T11:26:27.331Z,13.36
2023-10-02T11:29:22.316Z,13.36
2023-10-02T11:32:23.744Z,13.32
2023-10-02T11:35:09.469Z,13.33
2023-10-02T11:37:54.819Z,13.33
2023-10-02T11:40:45.991Z,13.38
2023-10-02T11:43:35.813Z,13.43
2023-10-02T11:46:24.563Z,13.48
2023-10-02T11:49:21.313Z,13.56
2023-10-02T11:52:15.224Z,13.63
2023-10-02T11:55:00.717Z,13.76
2023-10-02T11:57:52.899Z,13.90
2023-10-02T12:00:39.342Z,14.01
2023-10-02T12:03:24.776Z,14.07
2023-10-02T12:06:15.530Z,14.14
2023-10-02T12:09:02.483Z,14.16
2023-10-02T12:11:48.140Z,14.17
2023-10-02T12:14:34.060Z,14.16
2023-10-02T12:17:19.458Z,14.17
2023-10-02T12:20:12.225Z,14.15
2023-10-02T12:22:58.038Z,14.13
2023-10-02T12:25:49.448Z,14.13
2023-10-02T12:28:35.672Z,14.13
2023-10-02T12:31:21.088Z,14.13
2023-10-02T12:34:06.878Z,14.15
2023-10-02T12:36:55.107Z,14.16
2023-10-02T12:39:40.480Z,14.16
2023-10-02T12:42:26.885Z,14.16
2023-10-02T12:45:12.562Z,14.14
2023-10-02T12:47:58.309Z,14.14
2023-10-02T12:50:44.130Z,14.12
2023-10-02T12:53:29.537Z,14.07
2023-10-02T12:56:17.381Z,14.11
2023-10-02T12:59:03.732Z,14.11
2023-10-02T13:01:49.330Z,14.09
2023-10-02T13:04:34.615Z,14.12
2023-10-02T13:07:20.194Z,14.17
2023-10-02T13:10:06.251Z,14.25
2023-10-02T13:12:52.309Z,14.34
2023-10-02T13:15:38.053Z,14.42
2023-10-02T13:18:23.583Z,14.51
2023-10-02T13:21:09.869Z,14.56
2023-10-02T13:23:55.647Z,14.63
2023-10-02T13:26:42.142Z,14.67
2023-10-02T13:29:27.861Z,14.78
2023-10-02T13:32:13.276Z,14.84
2023-10-02T13:34:58.699Z,14.87
2023-10-02T13:37:44.728Z,14.86
2023-10-02T13:40:33.241Z,14.87
2023-10-02T13:43:19.840Z,14.87
2023-10-02T13:46:09.852Z,14.87
2023-10-02T13:48:55.981Z,14.88
2023-10-02T13:51:42.974Z,14.85
2023-10-02T13:54:30.410Z,14.80
2023-10-02T13:57:17.871Z,14.72
2023-10-02T14:00:11.580Z,14.66
2023-10-02T14:02:57.195Z,14.58
2023-10-02T14:05:42.830Z,14.52
2023-10-02T14:08:28.802Z,14.47
2023-10-02T14:11:19.249Z,14.47
2023-10-02T14:14:05.458Z,14.42
2023-10-02T14:16:51.310Z,14.41
2023-10-02T14:19:54.008Z,14.44
2023-10-02T14:22:51.985Z,14.46
2023-10-02T14:25:43.829Z,14.49
2023-10-02T14:28:30.182Z,14.49
2023-10-02T14:31:28.764Z,14.45
2023-10-02T14:34:14.209Z,14.37
2023-10-02T14:37:00.831Z,14.29
2023-10-02T14:39:46.682Z,14.17
2023-10-02T14:42:32.074Z,14.07
2023-10-02T14:45:17.668Z,14.00
2023-10-02T14:48:03.554Z,13.92
2023-10-02T14:50:49.339Z,13.85
2023-10-02T14:53:35.264Z,13.79
2023-10-02T14:56:22.987Z,13.74
2023-10-02T14:59:08.555Z,13.73
2023-10-02T15:01:54.053Z,13.68
2023-10-02T15:04:39.521Z,13.62
2023-10-02T15:07:26.520Z,13.60
2023-10-02T15:10:13.723Z,13.57
2023-10-02T15:12:59.912Z,13.52
2023-10-02T15:15:45.552Z,13.49
2023-10-02T15:18:31.012Z,13.47
2023-10-02T15:21:20.330Z,13.43
2023-10-02T15:24:06.088Z,13.37
2023-10-02T15:26:51.736Z,13.29
2023-10-02T15:29:37.906Z,13.24
2023-10-02T15:32:23.413Z,13.18
2023-10-02T15:35:12.657Z,13.15
2023-10-02T15:38:02.505Z,13.10
2023-10-02T15:40:48.367Z,13.05
2023-10-02T15:43:36.900Z,13.02
2023-10-02T15:46:22.722Z,12.96
2023-10-02T15:49:08.249Z,12.91
2023-10-02T15:51:53.748Z,12.87
2023-10-02T15:54:44.476Z,12.83
2023-10-02T15:57:30.196Z,12.77
2023-10-02T16:00:27.462Z,12.72
2023-10-02T16:03:13.535Z,12.68
2023-10-02T16:06:03.826Z,12.66
2023-10-02T16:08:49.743Z,12.66
2023-10-02T16:11:35.465Z,12.64
2023-10-02T16:14:20.974Z,12.64
2023-10-02T16:17:08.962Z,12.62
2023-10-02T16:19:54.909Z,12.61
2023-10-02T16:22:41.868Z,12.57
2023-10-02T16:25:29.905Z,12.53
2023-10-02T16:28:15.426Z,12.48
2023-10-02T16:31:00.958Z,12.43
2023-10-02T16:33:49.665Z,12.38
2023-10-02T16:36:35.418Z,12.34
2023-10-02T16:39:21.446Z,12.30
2023-10-02T16:42:07.426Z,12.26
2023-10-02T16:44:53.696Z,12.22
2023-10-02T16:47:42.535Z,12.17
2023-10-02T16:50:30.456Z,12.14
2023-10-02T16:53:16.464Z,12.12
2023-10-02T16:56:02.238Z,12.08
2023-10-02T16:58:47.583Z,12.02
2023-10-02T17:01:33.129Z,11.95
2023-10-02T17:04:18.976Z,11.90
2023-10-02T17:07:04.379Z,11.87
2023-10-02T17:09:50.929Z,11.84
2023-10-02T17:12:36.355Z,11.80
2023-10-02T17:15:21.885Z,11.77
2023-10-02T17:18:07.700Z,11.78
2023-10-02T17:20:53.165Z,11.76
2023-10-02T17:23:38.794Z,11.73
2023-10-02T17:26:24.558Z,11.70
2023-10-02T17:29:09.889Z,11.67
2023-10-02T17:31:55.666Z,11.62
2023-10-02T17:34:41.282Z,11.59
2023-10-02T17:37:26.763Z,11.55
2023-10-02T17:40:12.766Z,11.52
2023-10-02T17:42:58.602Z,11.50
2023-10-02T17:45:44.291Z,11.50
2023-10-02T17:48:29.833Z,11.53
2023-10-02T17:51:15.797Z,11.59
2023-10-02T17:54:01.252Z,11.63
2023-10-02T17:56:46.582Z,11.61
2023-10-02T17:59:32.178Z,11.60
2023-10-02T18:02:17.852Z,11.58
2023-10-02T18:05:04.746Z,11.56
2023-10-02T18:07:50.622Z,11.55
2023-10-02T18:10:38.021Z,11.50
2023-10-02T18:13:23.764Z,11.38
2023-10-02T18:16:10.061Z,11.26
2023-10-02T18:18:55.576Z,11.16
2023-10-02T18:21:41.685Z,11.05
2023-10-02T18:24:27.334Z,10.91
2023-10-02T18:27:13.363Z,10.73
2023-10-02T18:29:58.572Z,10.51
2023-10-02T18:32:44.230Z,10.33
2023-10-02T18:35:30.130Z,10.13
2023-10-02T18:38:15.486Z,9.95
2023-10-02T18:41:01.023Z,9.79
2023-10-02T18:43:47.175Z,9.63
2023-10-02T18:46:33.839Z,9.51
2023-10-02T18:49:19.253Z,9.43
2023-10-02T18:52:05.228Z,9.33
2023-10-02T18:54:50.656Z,9.26
2023-10-02T18:57:36.098Z,9.28
2023-10-02T19:00:21.981Z,9.30
2023-10-02T19:03:07.745Z,9.19
2023-10-02T19:05:53.514Z,9.10
2023-10-02T19:08:39.829Z,8.96
2023-10-02T19:11:28.973Z,8.88
2023-10-02T19:14:14.633Z,8.86
2023-10-02T19:17:00.008Z,8.90
2023-10-02T19:19:45.440Z,8.98
2023-10-02T19:22:32.558Z,9.00
2023-10-02T19:25:18.181Z,9.07
2023-10-02T19:28:03.991Z,9.06
2023-10-02T19:30:50.062Z,9.06
2023-10-02T19:33:35.799Z,9.12
2023-10-02T19:36:21.394Z,9.13
2023-10-02T19:39:09.465Z,9.15
2023-10-02T19:41:55.216Z,9.23
2023-10-02T19:44:40.677Z,9.23
2023-10-02T19:47:26.241Z,9.17
2023-10-02T19:50:13.102Z,9.19
2023-10-02T19:52:58.723Z,9.07
2023-10-02T19:55:44.212Z,8.92
2023-10-02T19:58:30.023Z,8.74
2023-10-02T20:01:15.833Z,8.58
2023-10-02T20:04:01.294Z,8.41
2023-10-02T20:06:47.474Z,8.25
2023-10-02T20:09:34.916Z,8.08
2023-10-02T20:12:21.708Z,7.90
2023-10-02T20:15:08.308Z,7.77
2023-10-02T20:17:53.917Z,7.64
2023-10-02T20:20:39.598Z,7.53
2023-10-02T20:23:37.225Z,7.56
2023-10-02T20:26:31.349Z,7.46
2023-10-02T20:29:16.991Z,7.46
2023-10-02T20:32:04.458Z,7.40
2023-10-02T20:34:51.323Z,7.27
2023-10-02T20:37:37.406Z,7.13
2023-10-02T20:40:22.874Z,7.05
2023-10-02T20:43:08.444Z,7.01
2023-10-02T20:45:53.933Z,6.94
2023-10-02T20:48:39.772Z,6.88
2023-10-02T20:51:25.196Z,6.78
2023-10-02T20:54:11.381Z,6.72
2023-10-02T20:56:57.151Z,6.71
2023-10-02T20:59:43.444Z,6.70
2023-10-02T21:02:30.780Z,6.67
2023-10-02T21:05:17.666Z,6.65
2023-10-02T21:08:04.642Z,6.59
2023-10-02T21:10:52.736Z,6.57
2023-10-02T21:13:38.147Z,6.49
2023-10-02T21:16:23.641Z,6.49
2023-10-02T21:19:09.028Z,6.43
2023-10-02T21:21:54.567Z,6.38
2023-10-02T21:24:40.036Z,6.46
2023-10-02T21:27:25.411Z,6.58
2023-10-02T21:30:14.276Z,6.63
2023-10-02T21:33:00.392Z,6.56
2023-10-02T21:35:46.445Z,6.55
2023-10-02T21:38:32.934Z,6.56
2023-10-02T21:41:20.475Z,6.62
2023-10-02T21:44:06.373Z,6.70
2023-10-02T21:46:52.123Z,6.75
2023-10-02T21:49:38.238Z,7.01
2023-10-02T21:52:24.631Z,7.28
2023-10-02T21:55:13.230Z,7.39
2023-10-02T21:57:58.817Z,7.52
2023-10-02T22:00:47.768Z,7.71
2023-10-02T22:03:33.764Z,7.84
2023-10-02T22:06:21.908Z,7.85
2023-10-02T22:09:07.838Z,7.88
2023-10-02T22:11:53.616Z,7.86
2023-10-02T22:14:40.675Z,7.95
2023-10-02T22:17:27.411Z,8.12
2023-10-02T22:20:19.849Z,8.17
2023-10-02T22:23:08.069Z,8.21
2023-10-02T22:25:58.203Z,8.15
2023-10-02T22:28:43.658Z,8.03
2023-10-02T22:31:29.637Z,7.95
2023-10-02T22:34:26.850Z,7.91
2023-10-02T22:37:24.324Z,8.02
2023-10-02T22:40:18.529Z,8.09
2023-10-02T22:43:04.272Z,8.10
2023-10-02T22:45:49.871Z,8.18
2023-10-02T22:48:35.776Z,8.24
2023-10-02T22:51:25.838Z,8.33
2023-10-02T22:54:11.428Z,8.25
2023-10-02T22:57:00.613Z,8.22
2023-10-02T22:59:48.361Z,8.23
2023-10-02T23:02:34.011Z,8.22
2023-10-02T23:05:19.917Z,8.25
2023-10-02T23:08:08.313Z,8.45
2023-10-02T23:10:53.733Z,8.55
2023-10-02T23:13:39.920Z,8.73
2023-10-02T23:16:25.316Z,8.80
2023-10-02T23:19:11.440Z,8.75
2023-10-02T23:21:56.920Z,8.59
2023-10-02T23:24:42.441Z,8.43
2023-10-02T23:27:28.132Z,8.41
2023-10-02T23:30:21.873Z,8.39
2023-10-02T23:33:07.333Z,8.45
2023-10-02T23:35:54.221Z,8.52
2023-10-02T23:38:39.614Z,8.54
2023-10-02T23:41:25.551Z,8.54
2023-10-02T23:44:14.160Z,8.46
2023-10-02T23:46:59.351Z,8.40
2023-10-02T23:49:45.034Z,8.42
2023-10-02T23:52:32.138Z,8.47
2023-10-02T23:55:29.403Z,8.52
2023-10-02T23:58:14.642Z,8.65
